Flight Track Log - Related Links

Times and Time Zones

All times are in EDT time to prevent confusion due to time zone crossing. See the N318CB flight status page for this flight to view local times or setup timezone preferences in your user account.

Time Position Orientation Groundspeed Altitude Reporting Facility
EDT Latitude Longitude Course Direction KTS MPH feet Rate Location/Type
Sun 04:11:57 PM 40.4500 -104.9667 159° South 190 219 8,300  Level Denver TRACON
Sun 04:12:51 PM 40.4000 -104.9500 166° South 192 221 9,500 1,368 Climbing Denver TRACON
Sun 04:13:51 PM 40.3500 -104.9167 153° Southeast 195 224 10,900 1,300 Climbing Denver TRACON
Sun 04:14:51 PM 40.3000 -104.8833 153° Southeast 200 230 12,100 1,250 Climbing Denver TRACON
Sun 04:15:51 PM 40.2500 -104.8667 166° South 202 232 13,400 1,263 Climbing Denver TRACON
Sun 04:16:45 PM 40.2167 -104.8333 143° Southeast 205 236 14,500 1,250 Climbing Denver TRACON
Sun 04:17:00 PM 40.0485 -104.7909 159° South  Level FlightAware Approximate
Sun 04:17:51 PM 40.1667 -104.7667 134° Southeast 210 242 15,900  Level Denver TRACON
Sun 04:18:28 PM 40.1464 -104.7475 144° Southeast 210 242 16,400 667 Climbing Denver Center
Sun 04:19:30 PM 40.0786 -104.7197 163° South 216 249 17,000 768 Climbing Denver Center
Sun 04:20:33 PM 40.0094 -104.7094 174° South 247 284 18,000 1,200 Climbing Denver Center
Sun 04:21:35 PM 39.9467 -104.6986 172° South 213 245 19,500 1,258 Climbing Denver Center
Sun 04:22:37 PM 39.8956 -104.6889 172° South 204 235 20,600 1,065 Climbing Denver Center
Sun 04:23:39 PM 39.8378 -104.6811 174° South 205 236 21,700 926 Climbing Denver Center
Sun 04:24:53 PM 39.7681 -104.6681 172° South 219 252 22,700 971 Climbing Denver Center
Sun 04:25:55 PM 39.7006 -104.6583 174° South 200 230 23,900 919 Climbing Denver Center
Sun 04:26:57 PM 39.6447 -104.6492 173° South 202 232 24,600 532 Climbing Denver Center
Sun 04:27:59 PM 39.5825 -104.6367 171° South 214 246 25,000 194 Climbing Denver Center
Sun 04:29:01 PM 39.5119 -104.6256 173° South 252 290 25,000  Level Denver Center
Sun 04:30:03 PM 39.4533 -104.6169 174° South 262 302 25,000  Level Denver Center
Sun 04:31:06 PM 39.3636 -104.6022 173° South 273 314 25,000  Level Denver Center
Sun 04:32:08 PM 39.2889 -104.6031 180° South 267 307 25,000  Level Denver Center
Sun 04:33:10 PM 39.1989 -104.6078 182° South 269 310 25,000  Level Denver Center
Sun 04:34:12 PM 39.1236 -104.6106 182° South 270 311 25,000  Level Denver Center
Sun 04:35:14 PM 39.0506 -104.6147 183° South 263 303 25,000  Level Denver Center
Sun 04:36:16 PM 38.9753 -104.6181 182° South 269 310 25,000  Level Denver Center
Sun 04:37:18 PM 38.8989 -104.5911 165° South 283 326 25,000  Level Denver Center
Sun 04:39:34 PM 38.7400 -104.5292 163° South 281 323 25,000  Level Denver Center
Sun 04:40:37 PM 38.6442 -104.4925 163° South 281 323 25,000  Level Denver Center
Sun 04:41:39 PM 38.5722 -104.4656 164° South 281 323 25,000  Level Denver Center
Sun 04:42:41 PM 38.4911 -104.4361 164° South 274 315 25,000  Level Denver Center
Sun 04:43:43 PM 38.4208 -104.4094 163° South 274 315 25,000  Level Denver Center
Sun 04:44:45 PM 38.3378 -104.3789 164° South 276 318 25,000  Level Denver Center
Sun 04:45:47 PM 38.2669 -104.3542 165° South 277 319 25,000  Level Denver Center
Sun 04:46:49 PM 38.1844 -104.3228 163° South 277 319 25,000  Level Denver Center
Sun 04:47:50 PM 38.1258 -104.3019 164° South 275 316 25,000  Level Denver Center
Sun 04:48:53 PM 38.0306 -104.2675 164° South 277 319 25,000  Level Denver Center
Sun 04:49:55 PM 37.9597 -104.2408 163° South 277 319 25,000  Level Denver Center
Sun 04:50:57 PM 37.8883 -104.2153 164° South 277 319 25,000  Level Denver Center
Sun 04:51:59 PM 37.8058 -104.1847 164° South 277 319 25,000  Level Denver Center
Sun 04:53:01 PM 37.7350 -104.1592 164° South 277 319 25,000  Level Denver Center
Sun 04:54:03 PM 37.6525 -104.1300 164° South 277 319 25,000  Level Denver Center
Sun 04:55:05 PM 37.5697 -104.1017 165° South 278 320 25,000  Level Denver Center
Sun 04:56:08 PM 37.4981 -104.0758 164° South 285 328 25,000  Level Denver Center
Sun 04:57:10 PM 37.4158 -104.0489 165° South 279 321 25,000  Level Denver Center
Sun 04:58:12 PM 37.3436 -104.0406 175° South 274 315 25,000  Level Denver Center
Sun 04:59:14 PM 37.2583 -104.0328 176° South 274 315 25,000  Level Denver Center
Sun 05:00:16 PM 37.1853 -104.0261 176° South 275 316 25,000  Level Denver Center
Sun 05:01:18 PM 37.1008 -104.0194 176° South 273 314 25,000  Level Denver Center
Sun 05:02:20 PM 37.0283 -104.0147 177° South 272 313 25,000  Level Denver Center
Sun 05:03:22 PM 36.9442 -104.0094 177° South 271 312 25,000  Level Denver Center
Sun 05:04:24 PM 36.8750 -103.9878 166° South 268 308 25,000  Level Denver Center
Sun 05:05:26 PM 36.7936 -103.9542 162° South 273 314 25,000  Level Denver Center
Sun 05:06:28 PM 36.7244 -103.9281 163° South 272 313 25,000  Level Denver Center
Sun 05:07:30 PM 36.6556 -103.9019 163° South 272 313 25,000  Level Denver Center
Sun 05:08:33 PM 36.5747 -103.8711 163° South 271 312 25,000  Level Denver Center
Sun 05:09:49 PM 36.4828 -103.8383 164° South 267 307 25,000  Level Albuquerque Center
Sun 05:10:50 PM 36.4103 -103.8083 162° South 270 311 25,000  Level Albuquerque Center
Sun 05:11:52 PM 36.3381 -103.7819 164° South 269 310 25,000  Level Albuquerque Center
Sun 05:12:54 PM 36.2661 -103.7564 164° South 267 307 25,000  Level Albuquerque Center
Sun 05:13:56 PM 36.1947 -103.7286 163° South 265 305 25,000  Level Albuquerque Center
Sun 05:14:58 PM 36.1228 -103.7011 163° South 266 306 25,000  Level Albuquerque Center
Sun 05:16:00 PM 36.0506 -103.6714 162° South 269 310 25,000  Level Albuquerque Center
Sun 05:17:02 PM 35.9681 -103.6403 163° South 265 305 25,000  Level Albuquerque Center
Sun 05:18:04 PM 35.8950 -103.6142 164° South 268 308 25,000  Level Albuquerque Center
Sun 05:19:06 PM 35.8233 -103.5869 163° South 266 306 25,000  Level Albuquerque Center
Sun 05:20:07 PM 35.7517 -103.5594 163° South 267 307 25,000  Level Albuquerque Center
Sun 05:21:09 PM 35.6803 -103.5336 164° South 265 305 25,000  Level Albuquerque Center
Sun 05:22:11 PM 35.6075 -103.5056 163° South 268 308 25,000  Level Albuquerque Center
Sun 05:23:13 PM 35.5361 -103.4789 163° South 267 307 25,000  Level Albuquerque Center
Sun 05:24:15 PM 35.4644 -103.4531 164° South 266 306 25,000  Level Albuquerque Center
Sun 05:25:17 PM 35.3931 -103.4250 162° South 265 305 25,000  Level Albuquerque Center
Sun 05:26:19 PM 35.3103 -103.3961 164° South 263 303 25,000  Level Albuquerque Center
Sun 05:27:21 PM 35.2400 -103.3689 162° South 261 300 25,000  Level Albuquerque Center
Sun 05:28:23 PM 35.1675 -103.3419 163° South 266 306 25,000 -49 Level Albuquerque Center
Sun 05:29:24 PM 35.0950 -103.3147 163° South 268 308 24,900 -49 Descending Albuquerque Center
Sun 05:30:26 PM 35.0219 -103.2889 164° South 269 310 24,900  Level Albuquerque Center
Sun 05:31:28 PM 34.9508 -103.2622 163° South 266 306 24,900  Level Albuquerque Center
Sun 05:32:30 PM 34.8781 -103.2358 163° South 267 307 24,900  Level Albuquerque Center
Sun 05:33:32 PM 34.8056 -103.2103 164° South 269 310 24,900  Level Albuquerque Center
Sun 05:34:34 PM 34.7333 -103.1831 163° South 267 307 24,900  Level Albuquerque Center
Sun 05:35:36 PM 34.6489 -103.1528 164° South 268 308 24,900  Level Albuquerque Center
Sun 05:36:37 PM 34.5772 -103.1269 163° South 267 307 24,900  Level Albuquerque Center
Sun 05:37:39 PM 34.5033 -103.1011 164° South 271 312 24,900  Level Albuquerque Center
Sun 05:38:41 PM 34.4314 -103.0750 163° South 269 310 24,900  Level Albuquerque Center
Sun 05:39:43 PM 34.3597 -103.0478 163° South 267 307 24,900  Level Albuquerque Center
Sun 05:40:44 PM 34.2878 -103.0231 164° South 267 307 24,900  Level Albuquerque Center
Sun 05:41:46 PM 34.2186 -102.9986 164° South 267 307 24,900  Level Albuquerque Center
Sun 05:42:48 PM 34.1494 -102.9719 162° South 263 303 24,900  Level Albuquerque Center
Sun 05:43:50 PM 34.0794 -102.9467 163° South 261 300 24,900  Level Albuquerque Center
Sun 05:44:51 PM 33.9956 -102.9144 162° South 263 303 24,900  Level Albuquerque Center
Sun 05:45:53 PM 33.9225 -102.8928 166° South 268 308 24,900  Level Albuquerque Center
Sun 05:46:55 PM 33.8528 -102.8672 163° South 265 305 24,900  Level Albuquerque Center
Sun 05:47:57 PM 33.7825 -102.8431 164° South 263 303 24,900  Level Albuquerque Center
Sun 05:48:58 PM 33.7108 -102.8150 162° South 268 308 24,900  Level Albuquerque Center
Sun 05:50:00 PM 33.6406 -102.7914 164° South 264 304 24,900  Level Albuquerque Center
Sun 05:51:02 PM 33.5706 -102.7669 164° South 263 303 24,900  Level Albuquerque Center
Sun 05:52:03 PM 33.4864 -102.7375 164° South 263 303 24,900  Level Albuquerque Center
Sun 05:53:26 PM 33.3917 -102.7000 162° South 261 300 24,900  Level Fort Worth Center
Sun 05:54:26 PM 33.3214 -102.6833 169° South 261 300 24,900  Level Fort Worth Center
Sun 05:55:26 PM 33.2539 -102.6569 162° South 261 300 24,900 -500 Level Fort Worth Center
Sun 05:56:26 PM 33.1817 -102.6328 164° South 261 300 23,900 -950 Descending Fort Worth Center
Sun 05:57:26 PM 33.1056 -102.6061 164° South 266 306 23,000 -900 Descending Fort Worth Center
Sun 05:58:26 PM 33.0294 -102.5794 164° South 278 320 22,100 -900 Descending Fort Worth Center
Sun 05:59:26 PM 32.9494 -102.5475 161° South 299 344 21,200 -950 Descending Fort Worth Center
Sun 06:00:26 PM 32.8775 -102.5236 164° South 276 318 20,200 -1,000 Descending Fort Worth Center
Sun 06:01:26 PM 32.8033 -102.4994 165° South 276 318 19,200 -950 Descending Fort Worth Center
Sun 06:02:26 PM 32.7292 -102.4731 163° South 276 318 18,300 -1,050 Descending Fort Worth Center
Sun 06:03:26 PM 32.6569 -102.4517 166° South 283 326 17,100 -1,400 Descending Fort Worth Center
Sun 06:04:26 PM 32.5786 -102.4278 166° South 288 331 15,500 -1,650 Descending Fort Worth Center
Sun 06:05:26 PM 32.4983 -102.3986 163° South 298 343 13,800 -1,650 Descending Fort Worth Center
Sun 06:06:26 PM 32.4203 -102.3697 163° South 298 343 12,200 -1,650 Descending Fort Worth Center
Sun 06:07:26 PM 32.3400 -102.3406 163° South 298 343 10,500 -1,700 Descending Fort Worth Center
Sun 06:08:26 PM 32.2658 -102.3169 165° South 292 336 8,800 -1,550 Descending Fort Worth Center
Sun 06:09:26 PM 32.1917 -102.2908 163° South 286 329 7,400 -1,350 Descending Fort Worth Center
Sun 06:10:26 PM 32.1236 -102.2675 164° South 274 315 6,100 -1,250 Descending Fort Worth Center
Sun 06:11:26 PM 32.0558 -102.2419 162° South 264 304 4,900 -1,100 Descending Fort Worth Center
Sun 06:12:26 PM 31.9942 -102.2117 157° South 254 292 3,900 -900 Descending Fort Worth Center
Sun 06:13:26 PM 31.9531 -102.1997 166° South 204 235 3,100 5,050 Descending Fort Worth Center
Sun 06:14:26 PM 31.8811 -102.1692 160° South 204 235 14,000 5,450 Climbing Fort Worth Center
Sun 06:15:26 PM 31.8256 -102.1492 163° South 204 235 14,000  Level Fort Worth Center

Login

Don't have an account? Register now (free) for customized features, flight alerts, and more!